Atlantic Mexico — 9V9007 — position and weather

sailwx.info

Track history (hours):
 
Tides and Currents Weather Stations Pressure Air Temp Water Temp Dewpoint Dewpoint Depression Visibility Wind Speed Wind Dir Waves Ship Positions

Atlantic Mexico

Last reported at 2018-May-25 15:38 UTC. Time now 2018-Jun-19 01:01 UTC.
Position N 09°14' W 079°56'.
Warning: this ship's position is 24 days out of date.

Length 190 m; draft 12 m.

Type: Cargo ship. MMSI: 566039000.

Date/timePositionNaut miles runAvg speedWind from/ knotsBaromVisibWave heightAir tempDewpointWater temp
2018-May-25 15:38N 09°14' W 079°56'0 0.0
2018-May-25 15:23N 09°14' W 079°56'0 0.0
2018-May-25 14:47N 09°14' W 079°56'0 0.0
2018-May-25 12:26N 09°14' W 079°56'0 0.1
2018-May-25 11:59N 09°14' W 079°56'0 0.0
2018-May-25 11:26N 09°14' W 079°56'0 0.0
2018-May-25 10:56N 09°14' W 079°56'0 0.0
2018-May-25 10:29N 09°14' W 079°56'0 0.0
2018-May-25 09:59N 09°14' W 079°56'0 0.0
2018-May-25 09:26N 09°14' W 079°56'0 0.2
2018-May-25 08:50N 09°14' W 079°56'0 0.1
2018-May-25 08:20N 09°14' W 079°56'1 1.6
2018-May-25 08:00N 09°15' W 079°55'2 3.0
2018-May-25 07:30N 09°16' W 079°55'0 0.3
2018-May-25 06:59N 09°16' W 079°55'0 0.4
2018-May-25 06:30N 09°17' W 079°55'0 0.3
2018-May-25 06:00N 09°17' W 079°55'0 0.7
2018-May-25 05:30N 09°17' W 079°55'1 2.6
2018-May-25 05:00N 09°18' W 079°55'3 5.9
2018-May-25 04:30N 09°21' W 079°55'1 2.2
2018-May-25 03:59N 09°22' W 079°56'0 0.0
2018-May-25 03:29N 09°22' W 079°56'0 0.1
2018-May-25 02:59N 09°22' W 079°55'0 0.0
2018-May-25 02:29N 09°22' W 079°56'2 3.6
2018-May-25 02:01N 09°24' W 079°55'3 5.8
2018-May-25 01:31N 09°26' W 079°57'1 0.2
2018-May-24 22:32N 09°26' W 079°58'0 0.0
2018-May-24 21:20N 09°26' W 079°58'0 0.0
2018-May-24 20:56N 09°26' W 079°58'0 0.0
2018-May-24 19:26N 09°26' W 079°58'0 0.0
2018-May-24 18:56N 09°26' W 079°58'0 0.0
2018-May-24 17:02N 09°26' W 079°58'0 0.1
2018-May-24 16:47N 09°26' W 079°58'0 0.0
2018-May-24 16:23N 09°26' W 079°58'0 0.0
2018-May-24 15:56N 09°26' W 079°58'0 0.0
2018-May-24 15:20N 09°26' W 079°58'0 0.0
2018-May-24 14:50N 09°26' W 079°58'0 0.0
2018-May-24 14:23N 09°26' W 079°58'0 0.0
2018-May-24 07:20N 09°26' W 079°58'0 0.0
2018-May-24 03:35N 09°26' W 079°58'0 0.0
2018-May-24 02:08N 09°26' W 079°58'0 0.0
2018-May-24 01:47N 09°26' W 079°58'0 0.0
2018-May-24 01:23N 09°26' W 079°58'0 0.0
2018-May-24 00:59N 09°26' W 079°58'0 0.0
2018-May-24 00:14N 09°26' W 079°58'0 0.0
2018-May-23 23:53N 09°26' W 079°58'0 0.0
2018-May-23 23:29N 09°26' W 079°58'0 0.0
2018-May-23 22:59N 09°26' W 079°58'0 0.0
2018-May-23 22:29N 09°26' W 079°58'0 0.0
2018-May-23 21:56N 09°26' W 079°58'0 0.0
2018-May-23 21:29N 09°26' W 079°58'0 0.0
2018-May-23 19:59N 09°26' W 079°58'0 0.0
2018-May-23 19:23N 09°26' W 079°58'0 0.3
2018-May-23 18:54N 09°26' W 079°58'2 4.4
2018-May-23 18:28N 09°28' W 079°57'4 8.7
2018-May-23 17:58N 09°31' W 079°54'  
2018-May-18 08:01N 29°55' W 090°06'011.9
2018-May-18 08:00N 29°55' W 090°06'65 3.2
2018-May-17 11:37N 30°26' W 091°12'0 0.0
2018-May-17 10:58N 30°26' W 091°12'0 0.0
2018-May-17 09:34N 30°26' W 091°12'0 0.0
2018-May-17 09:25N 30°26' W 091°12'  
Track history (hours):
 
Tides and Currents Weather Stations Pressure Air Temp Water Temp Dewpoint Dewpoint Depression Visibility Wind Speed Wind Dir Waves Ship Positions

Atlantic Mexico

Last reported at 2018-May-25 15:38 UTC. Time now 2018-Jun-19 01:01 UTC.
Position N 09°14' W 079°56'.
Warning: this ship's position is 24 days out of date.

Length 190 m; draft 12 m.

Type: Cargo ship. MMSI: 566039000.

Date/timePositionNaut miles runAvg speedWind from/ knotsBaromVisibWave heightAir tempDewpointWater temp
2018-May-25 15:38N 09°14' W 079°56'0 0.0
2018-May-25 15:23N 09°14' W 079°56'0 0.0
2018-May-25 14:47N 09°14' W 079°56'0 0.0
2018-May-25 12:26N 09°14' W 079°56'0 0.1
2018-May-25 11:59N 09°14' W 079°56'0 0.0
2018-May-25 11:26N 09°14' W 079°56'0 0.0
2018-May-25 10:56N 09°14' W 079°56'0 0.0
2018-May-25 10:29N 09°14' W 079°56'0 0.0
2018-May-25 09:59N 09°14' W 079°56'0 0.0
2018-May-25 09:26N 09°14' W 079°56'0 0.2
2018-May-25 08:50N 09°14' W 079°56'0 0.1
2018-May-25 08:20N 09°14' W 079°56'1 1.6
2018-May-25 08:00N 09°15' W 079°55'2 3.0
2018-May-25 07:30N 09°16' W 079°55'0 0.3
2018-May-25 06:59N 09°16' W 079°55'0 0.4
2018-May-25 06:30N 09°17' W 079°55'0 0.3
2018-May-25 06:00N 09°17' W 079°55'0 0.7
2018-May-25 05:30N 09°17' W 079°55'1 2.6
2018-May-25 05:00N 09°18' W 079°55'3 5.9
2018-May-25 04:30N 09°21' W 079°55'1 2.2
2018-May-25 03:59N 09°22' W 079°56'0 0.0
2018-May-25 03:29N 09°22' W 079°56'0 0.1
2018-May-25 02:59N 09°22' W 079°55'0 0.0
2018-May-25 02:29N 09°22' W 079°56'2 3.6
2018-May-25 02:01N 09°24' W 079°55'3 5.8
2018-May-25 01:31N 09°26' W 079°57'1 0.2
2018-May-24 22:32N 09°26' W 079°58'0 0.0
2018-May-24 21:20N 09°26' W 079°58'0 0.0
2018-May-24 20:56N 09°26' W 079°58'0 0.0
2018-May-24 19:26N 09°26' W 079°58'0 0.0
2018-May-24 18:56N 09°26' W 079°58'0 0.0
2018-May-24 17:02N 09°26' W 079°58'0 0.1
2018-May-24 16:47N 09°26' W 079°58'0 0.0
2018-May-24 16:23N 09°26' W 079°58'0 0.0
2018-May-24 15:56N 09°26' W 079°58'0 0.0
2018-May-24 15:20N 09°26' W 079°58'0 0.0
2018-May-24 14:50N 09°26' W 079°58'0 0.0
2018-May-24 14:23N 09°26' W 079°58'0 0.0
2018-May-24 07:20N 09°26' W 079°58'0 0.0
2018-May-24 03:35N 09°26' W 079°58'0 0.0
2018-May-24 02:08N 09°26' W 079°58'0 0.0
2018-May-24 01:47N 09°26' W 079°58'0 0.0
2018-May-24 01:23N 09°26' W 079°58'0 0.0
2018-May-24 00:59N 09°26' W 079°58'0 0.0
2018-May-24 00:14N 09°26' W 079°58'0 0.0
2018-May-23 23:53N 09°26' W 079°58'0 0.0
2018-May-23 23:29N 09°26' W 079°58'0 0.0
2018-May-23 22:59N 09°26' W 079°58'0 0.0
2018-May-23 22:29N 09°26' W 079°58'0 0.0
2018-May-23 21:56N 09°26' W 079°58'0 0.0
2018-May-23 21:29N 09°26' W 079°58'0 0.0
2018-May-23 19:59N 09°26' W 079°58'0 0.0
2018-May-23 19:23N 09°26' W 079°58'0 0.3
2018-May-23 18:54N 09°26' W 079°58'2 4.4
2018-May-23 18:28N 09°28' W 079°57'4 8.7
2018-May-23 17:58N 09°31' W 079°54'  
2018-May-18 08:01N 29°55' W 090°06'011.9
2018-May-18 08:00N 29°55' W 090°06'65 3.2
2018-May-17 11:37N 30°26' W 091°12'0 0.0
2018-May-17 10:58N 30°26' W 091°12'0 0.0
2018-May-17 09:34N 30°26' W 091°12'0 0.0
2018-May-17 09:25N 30°26' W 091°12'  

Dump ship's entire track history